Time;durP1;ratioP1;P1;durP2;ratioP2;P2;SDS_P1;SDS_P2;PMS_P1;PMS_P2;Temp;Humidity;BMP_temperature;BMP_pressure;BME280_temperature;BME280_humidity;BME280_pressure;Samples;Min_cycle;Max_cycle;Signal;HPM_P1;HPM_P2
2024/01/07 00:00:13;;;;;;;5.90;4.10;;;;;;;8.14;84.59;91989.22;523537;28;857;-69
2024/01/07 00:00:30;;;;;;;4.25;3.35;;;;;;;8.10;84.64;91988.91;522302;28;985;-69
2024/01/07 00:00:45;;;;;;;5.28;3.63;;;;;;;8.10;85.03;91988.19;521435;28;865;-69
2024/01/07 00:01:00;;;;;;;7.15;4.35;;;;;;;8.07;85.16;91994.81;521508;28;1131;-70
2024/01/07 00:01:16;;;;;;;8.53;5.33;;;;;;;8.06;85.53;91993.34;521749;28;1716;-70
2024/01/07 00:01:31;;;;;;;9.50;5.70;;;;;;;8.05;85.36;91998.13;522616;28;985;-69
2024/01/07 00:01:50;;;;;;;7.82;4.90;;;;;;;8.05;85.92;91994.66;522846;28;951;-69
2024/01/07 00:02:06;;;;;;;6.88;4.63;;;;;;;8.08;85.91;91999.75;522713;28;1236;-70
2024/01/07 00:02:21;;;;;;;6.60;4.30;;;;;;;8.10;85.41;92001.94;523337;28;873;-69
2024/01/07 00:02:37;;;;;;;6.55;3.97;;;;;;;8.11;85.83;91998.63;523623;28;785;-69
2024/01/07 00:02:52;;;;;;;8.23;3.63;;;;;;;8.16;85.64;92008.66;523514;28;837;-69
2024/01/07 00:03:08;;;;;;;7.13;3.08;;;;;;;8.17;85.35;92007.34;523624;28;814;-69
2024/01/07 00:03:23;;;;;;;5.90;2.70;;;;;;;8.14;85.39;92002.25;522994;28;928;-69
2024/01/07 00:03:41;;;;;;;5.90;2.30;;;;;;;8.12;85.34;92008.31;523151;28;1244;-70
2024/01/07 00:03:56;;;;;;;4.93;2.42;;;;;;;8.14;85.38;91999.50;522744;28;1657;-69
2024/01/07 00:04:12;;;;;;;3.92;2.75;;;;;;;8.13;85.43;92004.28;522523;28;849;-69
2024/01/07 00:04:27;;;;;;;4.03;2.83;;;;;;;8.13;85.63;92000.78;523045;28;1174;-69
2024/01/07 00:04:42;;;;;;;5.87;2.73;;;;;;;8.14;85.58;91999.50;521338;28;985;-69
2024/01/07 00:04:58;;;;;;;5.30;2.65;;;;;;;8.13;85.47;91998.03;521443;28;881;-70
2024/01/07 00:05:14;;;;;;;3.13;2.67;;;;;;;8.13;85.50;91992.53;522071;28;1077;-69
2024/01/07 00:05:29;;;;;;;3.73;2.50;;;;;;;8.12;85.64;91991.81;523973;28;845;-69
2024/01/07 00:05:46;;;;;;;4.13;2.30;;;;;;;8.13;85.62;91993.28;523456;28;1423;-69
2024/01/07 00:06:02;;;;;;;4.80;2.30;;;;;;;8.16;85.67;91996.91;523046;28;946;-69
2024/01/07 00:06:18;;;;;;;4.15;2.30;;;;;;;8.18;85.94;91992.31;521968;28;818;-69
2024/01/07 00:06:33;;;;;;;4.30;2.70;;;;;;;8.18;85.68;91989.56;521431;28;782;-69
2024/01/07 00:06:49;;;;;;;4.57;2.92;;;;;;;8.17;85.43;91988.09;521769;28;1021;-69
2024/01/07 00:07:04;;;;;;;5.37;2.80;;;;;;;8.17;85.36;91987.34;523518;28;1926;-69
2024/01/07 00:07:20;;;;;;;5.35;2.60;;;;;;;8.10;85.38;91982.69;523830;28;794;-69
2024/01/07 00:07:36;;;;;;;3.30;2.75;;;;;;;8.12;85.69;91986.31;523494;28;944;-69
2024/01/07 00:07:51;;;;;;;3.67;2.80;;;;;;;8.12;85.79;91980.81;523646;28;813;-69
2024/01/07 00:08:07;;;;;;;3.78;2.75;;;;;;;8.14;85.84;91983.00;523760;28;850;-69
2024/01/07 00:08:22;;;;;;;3.47;2.60;;;;;;;8.15;85.74;91995.44;523344;28;1575;-69
2024/01/07 00:08:38;;;;;;;3.53;2.60;;;;;;;8.11;85.84;91984.88;522017;28;883;-69
2024/01/07 00:08:53;;;;;;;5.60;3.70;;;;;;;8.13;85.78;91992.53;521932;28;802;-69
2024/01/07 00:09:11;;;;;;;6.07;3.85;;;;;;;8.14;85.81;91983.72;523797;28;841;-69
2024/01/07 00:09:26;;;;;;;4.50;3.05;;;;;;;8.18;85.70;91981.31;523558;28;896;-69
2024/01/07 00:09:42;;;;;;;3.67;2.50;;;;;;;8.22;85.50;91986.38;521701;28;889;-70
2024/01/07 00:09:57;;;;;;;2.93;1.90;;;;;;;8.22;85.70;91986.38;521674;28;857;-69
2024/01/07 00:10:13;;;;;;;2.90;2.10;;;;;;;8.22;85.46;91981.63;523054;28;1017;-69
2024/01/07 00:10:28;;;;;;;3.45;2.10;;;;;;;8.24;85.40;91979.03;523857;28;955;-69
2024/01/07 00:10:44;;;;;;;3.33;2.20;;;;;;;8.26;85.35;91979.22;521679;28;759;-69
2024/01/07 00:10:59;;;;;;;3.92;2.33;;;;;;;8.27;85.36;91974.44;521791;28;818;-69
2024/01/07 00:11:15;;;;;;;4.27;2.47;;;;;;;8.28;85.45;91982.13;521748;28;869;-70
2024/01/07 00:11:30;;;;;;;3.25;2.13;;;;;;;8.28;85.66;91973.13;523977;28;1119;-69
2024/01/07 00:11:46;;;;;;;2.67;1.77;;;;;;;8.26;85.49;91981.22;523476;28;1126;-69
2024/01/07 00:12:01;;;;;;;3.90;2.20;;;;;;;8.25;85.46;91977.75;521753;28;1448;-70
2024/01/07 00:12:17;;;;;;;5.40;2.83;;;;;;;8.26;85.39;91986.72;521788;28;892;-70
2024/01/07 00:12:32;;;;;;;5.82;3.13;;;;;;;8.24;85.44;91990.03;521643;28;876;-69
2024/01/07 00:12:49;;;;;;;6.83;3.00;;;;;;;8.25;85.25;91977.00;521529;28;925;-69
2024/01/07 00:13:05;;;;;;;4.80;2.70;;;;;;;8.25;85.42;91985.25;521487;28;937;-69
2024/01/07 00:13:20;;;;;;;4.30;2.30;;;;;;;8.22;85.60;91984.38;521628;28;1009;-69
2024/01/07 00:13:36;;;;;;;5.50;2.50;;;;;;;8.22;85.69;91980.88;521531;28;814;-69
2024/01/07 00:13:51;;;;;;;4.82;2.80;;;;;;;8.23;85.69;91985.81;521539;28;779;-70
2024/01/07 00:14:07;;;;;;;3.47;2.57;;;;;;;8.23;85.93;91974.06;521512;28;897;-69
2024/01/07 00:14:22;;;;;;;4.38;3.05;;;;;;;8.26;85.69;91981.97;522597;28;893;-70
2024/01/07 00:14:38;;;;;;;6.40;3.57;;;;;;;8.29;85.69;91975.31;523487;28;846;-70
2024/01/07 00:14:53;;;;;;;6.05;3.15;;;;;;;8.28;85.37;91971.13;523445;28;1144;-69
2024/01/07 00:15:09;;;;;;;5.10;2.80;;;;;;;8.22;85.35;91958.91;522810;28;1721;-69
2024/01/07 00:15:26;;;;;;;3.40;2.30;;;;;;;8.29;85.46;91971.84;522722;28;1069;-69
2024/01/07 00:15:42;;;;;;;3.42;2.35;;;;;;;8.31;85.24;91974.75;521381;28;829;-69
2024/01/07 00:15:57;;;;;;;4.43;2.88;;;;;;;8.33;85.25;91974.91;521523;28;766;-69
2024/01/07 00:16:13;;;;;;;4.07;2.90;;;;;;;8.34;85.24;91974.34;522096;28;916;-70
2024/01/07 00:16:28;;;;;;;4.03;3.10;;;;;;;8.33;84.98;91972.16;523926;28;895;-70
2024/01/07 00:16:43;;;;;;;4.00;2.93;;;;;;;8.34;84.99;91973.59;523167;28;1228;-70
2024/01/07 00:16:59;;;;;;;4.57;3.00;;;;;;;8.31;84.96;91961.00;523614;28;773;-69
2024/01/07 00:17:14;;;;;;;7.43;3.90;;;;;;;8.18;84.62;91953.09;523268;28;817;-70
2024/01/07 00:17:30;;;;;;;8.60;5.20;;;;;;;8.36;84.62;91973.75;523570;28;818;-70
2024/01/07 00:17:45;;;;;;;5.97;4.70;;;;;;;8.38;84.56;91974.66;523558;28;936;-69
2024/01/07 00:18:01;;;;;;;6.10;5.17;;;;;;;8.38;84.67;91973.94;523529;28;758;-69
2024/01/07 00:18:16;;;;;;;7.07;4.65;;;;;;;8.38;84.51;91971.19;522471;28;981;-69
2024/01/07 00:18:31;;;;;;;5.77;3.30;;;;;;;8.39;84.77;91972.63;523767;28;774;-69
2024/01/07 00:18:47;;;;;;;4.50;3.20;;;;;;;8.40;84.61;91977.56;523575;28;865;-70
2024/01/07 00:19:02;;;;;;;4.03;2.95;;;;;;;8.45;84.88;91975.84;523663;28;781;-69
2024/01/07 00:19:18;;;;;;;5.43;4.47;;;;;;;8.47;84.65;91970.50;523886;28;1018;-69
2024/01/07 00:19:35;;;;;;;7.28;5.13;;;;;;;8.49;84.70;91972.69;522855;28;1717;-69
2024/01/07 00:19:51;;;;;;;7.15;4.82;;;;;;;8.51;84.82;91973.56;522970;28;1013;-69
2024/01/07 00:20:07;;;;;;;5.95;4.22;;;;;;;8.55;84.64;91975.91;522943;28;817;-69
2024/01/07 00:20:22;;;;;;;5.70;3.83;;;;;;;8.49;84.54;91956.19;522689;28;877;-70
2024/01/07 00:20:38;;;;;;;6.80;4.63;;;;;;;8.59;84.52;91973.47;523131;28;771;-69
2024/01/07 00:20:53;;;;;;;6.20;4.70;;;;;;;8.62;84.27;91966.81;521440;28;865;-69
2024/01/07 00:21:09;;;;;;;5.78;4.93;;;;;;;8.60;83.91;91972.88;521604;28;810;-70
2024/01/07 00:21:24;;;;;;;7.50;6.28;;;;;;;8.62;83.88;91969.56;522766;28;880;-70
2024/01/07 00:21:40;;;;;;;7.10;5.63;;;;;;;8.64;83.95;91966.97;523132;28;1275;-69
2024/01/07 00:21:55;;;;;;;4.27;3.33;;;;;;;8.66;84.10;91976.13;521511;28;889;-70
2024/01/07 00:22:10;;;;;;;3.13;2.35;;;;;;;8.68;83.81;91968.03;521307;28;1735;-69
2024/01/07 00:22:26;;;;;;;4.27;3.37;;;;;;;8.67;83.50;91966.56;522264;28;808;-70
2024/01/07 00:22:41;;;;;;;4.40;3.35;;;;;;;8.70;83.73;91972.94;523467;28;833;-69
2024/01/07 00:22:57;;;;;;;4.30;3.70;;;;;;;8.71;83.65;91966.84;521453;28;848;-69
2024/01/07 00:23:12;;;;;;;8.70;7.28;;;;;;;8.74;83.26;91970.50;522940;28;1014;-69
2024/01/07 00:23:28;;;;;;;19.97;15.10;;;;;;;8.77;83.44;91975.56;523530;28;924;-69
2024/01/07 00:23:43;;;;;;;21.70;16.33;;;;;;;8.79;83.23;91969.50;523501;28;813;-69
2024/01/07 00:23:58;;;;;;;11.68;9.00;;;;;;;8.81;83.19;91977.91;523688;28;782;-69
2024/01/07 00:24:14;;;;;;;5.33;4.23;;;;;;;8.82;83.07;91971.84;523504;28;1073;-69
2024/01/07 00:24:29;;;;;;;2.92;2.50;;;;;;;8.86;83.23;91971.41;521917;28;789;-70
2024/01/07 00:24:45;;;;;;;2.67;1.93;;;;;;;8.83;82.94;91956.78;522063;28;915;-69
2024/01/07 00:25:00;;;;;;;3.03;2.03;;;;;;;8.81;82.95;91964.88;523573;28;1034;-69
2024/01/07 00:25:18;;;;;;;4.50;3.10;;;;;;;8.84;82.88;91963.72;521966;28;1796;-69
2024/01/07 00:25:33;;;;;;;5.03;3.60;;;;;;;8.87;83.04;91965.34;521494;28;882;-69
2024/01/07 00:25:49;;;;;;;5.40;3.60;;;;;;;8.88;82.84;91966.78;523480;28;877;-69
2024/01/07 00:26:04;;;;;;;4.23;3.20;;;;;;;8.91;82.78;91962.16;523599;28;822;-69
2024/01/07 00:26:19;;;;;;;4.10;3.17;;;;;;;8.91;82.78;91967.66;522063;28;953;-70
2024/01/07 00:26:35;;;;;;;6.13;3.87;;;;;;;8.94;82.47;91972.03;521532;28;861;-69
2024/01/07 00:26:50;;;;;;;7.03;4.55;;;;;;;8.93;82.52;91957.53;521490;28;942;-69
2024/01/07 00:27:08;;;;;;;6.53;4.60;;;;;;;8.94;82.27;91975.50;521596;28;1918;-69
2024/01/07 00:27:23;;;;;;;5.07;3.83;;;;;;;8.96;82.46;91972.19;523001;28;1008;-69
2024/01/07 00:27:39;;;;;;;5.07;3.03;;;;;;;8.98;82.55;91970.31;523722;28;884;-69
2024/01/07 00:27:55;;;;;;;3.47;2.20;;;;;;;9.00;82.22;91967.72;522142;28;1670;-69
2024/01/07 00:28:11;;;;;;;1.90;1.77;;;;;;;9.02;82.07;91967.88;523701;28;857;-69
2024/01/07 00:28:26;;;;;;;2.10;1.80;;;;;;;9.02;82.12;91967.88;523756;28;940;-69
2024/01/07 00:28:42;;;;;;;2.33;1.70;;;;;;;9.04;82.28;91965.25;523636;28;845;-69
2024/01/07 00:28:59;;;;;;;2.80;2.22;;;;;;;9.07;82.05;91972.34;522171;28;822;-69
2024/01/07 00:29:14;;;;;;;4.38;2.40;;;;;;;9.09;81.94;91980.78;521710;28;861;-70
2024/01/07 00:29:30;;;;;;;4.20;1.90;;;;;;;9.10;81.81;91968.47;523914;28;767;-69
2024/01/07 00:29:45;;;;;;;1.70;1.30;;;;;;;9.12;81.82;91971.38;523663;28;1152;-69
2024/01/07 00:30:01;;;;;;;1.73;1.40;;;;;;;9.14;81.77;91974.28;522170;28;770;-70
2024/01/07 00:30:19;;;;;;;2.97;1.67;;;;;;;9.15;81.85;91970.22;521847;28;797;-69
2024/01/07 00:30:35;;;;;;;2.83;2.15;;;;;;;9.09;81.80;91956.00;521738;28;869;-70
2024/01/07 00:30:50;;;;;;;4.53;2.50;;;;;;;9.15;81.78;91970.22;521628;28;869;-69
2024/01/07 00:31:08;;;;;;;6.25;2.42;;;;;;;9.18;81.44;91976.63;521726;28;861;-69
2024/01/07 00:31:24;;;;;;;5.03;2.70;;;;;;;9.20;81.43;91976.03;523854;28;873;-70
2024/01/07 00:31:39;;;;;;;5.13;3.90;;;;;;;9.19;81.63;91975.31;525910;28;817;-69
2024/01/07 00:31:55;;;;;;;5.13;4.60;;;;;;;9.21;81.49;91974.72;525862;28;924;-70
2024/01/07 00:32:10;;;;;;;5.33;4.57;;;;;;;9.20;81.26;91979.53;525865;28;813;-69
2024/01/07 00:32:26;;;;;;;5.50;3.63;;;;;;;9.18;81.70;91977.31;522369;28;1771;-69
2024/01/07 00:32:42;;;;;;;6.60;4.60;;;;;;;9.21;81.48;91978.19;521530;28;801;-69
2024/01/07 00:32:57;;;;;;;7.40;6.43;;;;;;;9.21;81.38;91974.72;523533;28;997;-70
2024/01/07 00:33:13;;;;;;;7.03;6.27;;;;;;;9.17;81.38;91972.41;523588;28;835;-69
2024/01/07 00:33:30;;;;;;;6.75;5.00;;;;;;;9.14;81.78;91973.53;523953;28;806;-68
2024/01/07 00:33:45;;;;;;;4.45;2.47;;;;;;;9.11;82.03;91975.44;523591;28;1282;-69
2024/01/07 00:34:01;;;;;;;3.83;2.55;;;;;;;9.10;81.85;91973.25;523507;28;852;-70
2024/01/07 00:34:16;;;;;;;5.10;2.67;;;;;;;9.18;81.75;91973.88;523545;28;838;-70
2024/01/07 00:34:32;;;;;;;7.82;2.60;;;;;;;9.16;81.48;91974.41;522828;28;977;-70
2024/01/07 00:34:47;;;;;;;6.10;2.80;;;;;;;9.22;81.75;91973.44;523604;28;901;-70
2024/01/07 00:35:03;;;;;;;2.97;2.67;;;;;;;9.23;81.94;91974.88;522948;28;1511;-71
2024/01/07 00:35:18;;;;;;;3.73;2.73;;;;;;;9.26;81.49;91968.22;521839;28;1862;-70
2024/01/07 00:35:34;;;;;;;4.03;2.58;;;;;;;9.31;81.56;91975.47;523539;28;815;-70
2024/01/07 00:35:49;;;;;;;2.67;2.27;;;;;;;9.32;81.56;91972.16;521720;28;853;-70
2024/01/07 00:36:05;;;;;;;2.45;2.00;;;;;;;9.35;81.14;91973.03;522342;28;1006;-70
2024/01/07 00:36:20;;;;;;;4.30;2.13;;;;;;;9.36;81.13;91971.72;522481;28;865;-70
2024/01/07 00:36:36;;;;;;;4.75;2.35;;;;;;;9.38;80.97;91966.34;521667;28;786;-70
2024/01/07 00:36:51;;;;;;;3.90;2.00;;;;;;;9.39;81.00;91970.56;521621;28;786;-70
2024/01/07 00:37:07;;;;;;;4.00;2.30;;;;;;;9.41;80.72;91974.19;521719;28;841;-70
2024/01/07 00:37:22;;;;;;;4.20;2.83;;;;;;;9.40;81.03;91966.53;521964;28;1558;-68
2024/01/07 00:37:37;;;;;;;3.17;2.07;;;;;;;9.41;80.97;91976.22;521901;28;1013;-69
2024/01/07 00:37:56;;;;;;;1.95;1.38;;;;;;;9.43;80.83;91977.09;523683;28;849;-70
2024/01/07 00:38:11;;;;;;;2.13;1.75;;;;;;;9.45;80.38;91973.75;523464;28;928;-69
2024/01/07 00:38:27;;;;;;;2.70;2.30;;;;;;;9.44;80.46;91970.28;522561;28;1639;-69
2024/01/07 00:38:42;;;;;;;3.13;2.25;;;;;;;9.47;80.61;91968.41;522380;28;932;-69
2024/01/07 00:38:58;;;;;;;2.93;1.90;;;;;;;9.47;80.37;91977.41;522244;28;1264;-69
2024/01/07 00:39:13;;;;;;;2.58;1.92;;;;;;;9.50;80.14;91975.53;521384;28;866;-70
2024/01/07 00:39:28;;;;;;;3.73;2.50;;;;;;;9.47;80.29;91971.16;522689;28;968;-69
2024/01/07 00:39:45;;;;;;;4.70;2.60;;;;;;;9.49;79.85;91971.31;523419;28;965;-69
2024/01/07 00:40:01;;;;;;;3.72;2.60;;;;;;;9.51;80.13;91972.19;522950;28;932;-70
2024/01/07 00:40:16;;;;;;;2.60;2.03;;;;;;;9.38;80.03;91947.06;521688;28;877;-70
2024/01/07 00:40:32;;;;;;;3.00;1.70;;;;;;;9.54;79.94;91975.81;522743;28;1211;-69
2024/01/07 00:40:47;;;;;;;2.63;1.67;;;;;;;9.56;79.95;91971.19;521558;28;842;-70
2024/01/07 00:41:03;;;;;;;3.00;1.77;;;;;;;9.59;79.91;91972.06;522874;28;1127;-70
2024/01/07 00:41:18;;;;;;;2.63;1.73;;;;;;;9.60;79.83;91974.22;523957;28;946;-70
2024/01/07 00:41:34;;;;;;;1.97;1.60;;;;;;;9.61;80.17;91970.19;521467;28;829;-70
2024/01/07 00:41:49;;;;;;;3.08;1.77;;;;;;;9.63;79.91;91967.56;521478;28;939;-70
2024/01/07 00:42:05;;;;;;;3.63;2.50;;;;;;;9.64;79.62;91973.78;521442;28;1440;-70
2024/01/07 00:42:21;;;;;;;4.20;3.47;;;;;;;9.64;79.72;91979.31;521385;28;1709;-70
2024/01/07 00:42:36;;;;;;;5.47;3.40;;;;;;;9.65;79.68;91975.25;522598;28;942;-70
2024/01/07 00:42:52;;;;;;;4.95;3.20;;;;;;;9.62;79.55;91968.13;523462;28;885;-70
2024/01/07 00:43:07;;;;;;;3.55;3.08;;;;;;;9.62;79.69;91976.41;523588;28;857;-70
2024/01/07 00:43:22;;;;;;;2.97;2.27;;;;;;;9.64;79.94;91974.53;522767;28;924;-69
2024/01/07 00:43:38;;;;;;;2.70;1.80;;;;;;;9.66;79.83;91982.22;521544;28;774;-69
2024/01/07 00:43:53;;;;;;;2.45;1.60;;;;;;;9.67;79.75;91980.91;521409;28;853;-69
2024/01/07 00:44:09;;;;;;;1.73;1.40;;;;;;;9.69;79.85;91981.06;521679;28;1428;-69
2024/01/07 00:44:24;;;;;;;2.92;2.00;;;;;;;9.69;79.43;91987.31;522773;28;1471;-68
2024/01/07 00:44:40;;;;;;;3.53;2.50;;;;;;;9.69;79.40;91987.31;523604;28;1111;-69
2024/01/07 00:44:55;;;;;;;2.47;2.08;;;;;;;9.69;79.73;91989.31;523796;28;922;-67
2024/01/07 00:45:11;;;;;;;2.10;1.80;;;;;;;9.72;79.78;91991.63;522701;28;1527;-69
2024/01/07 00:45:26;;;;;;;2.15;1.80;;;;;;;9.73;79.85;91984.09;522438;28;837;-69
2024/01/07 00:45:42;;;;;;;1.80;1.40;;;;;;;9.74;79.67;91986.31;521541;28;1533;-69
2024/01/07 00:45:57;;;;;;;1.33;1.20;;;;;;;9.76;79.74;91982.97;522698;28;1033;-69
2024/01/07 00:46:13;;;;;;;1.73;1.60;;;;;;;9.77;79.94;91985.13;522097;28;829;-69
2024/01/07 00:46:28;;;;;;;2.33;2.10;;;;;;;9.74;79.45;91980.06;523739;28;857;-69
2024/01/07 00:46:44;;;;;;;2.50;2.00;;;;;;;9.80;79.57;91988.75;523603;28;825;-69
2024/01/07 00:46:59;;;;;;;3.40;1.90;;;;;;;9.81;79.52;91981.97;523624;28;810;-69
2024/01/07 00:47:15;;;;;;;3.15;1.67;;;;;;;9.81;79.48;91990.94;523159;28;1973;-69
2024/01/07 00:47:30;;;;;;;2.97;1.50;;;;;;;9.83;79.84;91982.09;523424;28;1101;-69
2024/01/07 00:47:45;;;;;;;3.50;1.50;;;;;;;9.82;79.92;91975.84;521267;28;1686;-68
2024/01/07 00:48:01;;;;;;;3.63;1.53;;;;;;;9.80;79.70;91972.22;521954;28;878;-68
2024/01/07 00:48:16;;;;;;;2.80;1.60;;;;;;;9.74;80.11;91980.06;523678;28;858;-69
2024/01/07 00:48:32;;;;;;;2.72;1.77;;;;;;;9.72;80.51;91986.13;523304;28;794;-69
2024/01/07 00:48:47;;;;;;;2.97;2.00;;;;;;;9.73;80.31;91984.84;522859;28;889;-69
2024/01/07 00:49:03;;;;;;;2.00;1.80;;;;;;;9.73;80.54;91973.81;523297;28;957;-69
2024/01/07 00:49:18;;;;;;;1.70;1.60;;;;;;;9.75;80.41;91976.72;523639;28;1021;-69
2024/01/07 00:49:34;;;;;;;1.60;1.50;;;;;;;9.69;80.74;91970.03;521641;28;975;-69
2024/01/07 00:49:50;;;;;;;2.50;1.93;;;;;;;9.67;80.57;91980.91;521520;28;881;-69
2024/01/07 00:50:05;;;;;;;3.22;2.00;;;;;;;9.67;80.82;91972.66;521528;28;865;-69
2024/01/07 00:50:21;;;;;;;2.30;1.63;;;;;;;9.66;81.10;91980.19;522545;28;805;-69
2024/01/07 00:50:36;;;;;;;2.80;1.40;;;;;;;9.50;80.97;91959.72;523574;28;813;-69
2024/01/07 00:50:52;;;;;;;2.83;1.20;;;;;;;9.67;81.21;91981.66;523336;28;942;-69
2024/01/07 00:51:07;;;;;;;1.77;1.43;;;;;;;9.65;81.20;91973.22;523590;28;837;-70
2024/01/07 00:51:23;;;;;;;2.13;1.70;;;;;;;9.66;81.34;91977.44;523818;28;845;-69
2024/01/07 00:51:38;;;;;;;3.20;1.70;;;;;;;9.64;81.21;91971.03;523595;28;930;-69
2024/01/07 00:51:53;;;;;;;2.80;1.73;;;;;;;9.61;81.40;91970.19;523522;28;818;-69
2024/01/07 00:52:09;;;;;;;1.58;1.40;;;;;;;9.61;81.74;91970.19;523583;28;872;-70
2024/01/07 00:52:24;;;;;;;1.90;1.30;;;;;;;9.58;81.80;91970.59;522503;28;1725;-69
2024/01/07 00:52:42;;;;;;;2.20;1.67;;;;;;;9.57;82.13;91969.16;522162;28;818;-70
2024/01/07 00:52:57;;;;;;;3.15;2.10;;;;;;;9.56;82.36;91962.91;521364;28;955;-69
2024/01/07 00:53:13;;;;;;;3.42;2.00;;;;;;;9.59;82.15;91967.28;521507;28;813;-69
2024/01/07 00:53:28;;;;;;;2.60;1.80;;;;;;;9.57;82.26;91969.16;521870;28;991;-69
2024/01/07 00:53:44;;;;;;;2.78;1.85;;;;;;;9.58;82.27;91971.34;522161;28;787;-69
2024/01/07 00:53:59;;;;;;;3.10;2.10;;;;;;;9.58;82.46;91973.34;523320;28;949;-69
2024/01/07 00:54:15;;;;;;;3.00;2.70;;;;;;;9.57;82.31;91964.34;522905;28;865;-69
2024/01/07 00:54:30;;;;;;;3.10;2.80;;;;;;;9.53;82.52;91969.56;522516;28;791;-69
2024/01/07 00:54:46;;;;;;;4.32;2.40;;;;;;;9.54;82.64;91973.78;521530;28;940;-69
2024/01/07 00:55:03;;;;;;;5.00;2.47;;;;;;;9.54;82.85;91968.28;521677;28;849;-69
2024/01/07 00:55:18;;;;;;;2.50;2.30;;;;;;;9.56;82.79;91967.69;522676;28;1677;-69
2024/01/07 00:55:35;;;;;;;2.55;2.05;;;;;;;9.57;82.51;91960.91;522017;28;987;-69
2024/01/07 00:55:50;;;;;;;2.50;1.75;;;;;;;9.57;82.60;91964.34;521710;28;1054;-70
2024/01/07 00:56:06;;;;;;;3.90;1.70;;;;;;;9.57;82.83;91964.34;521598;28;790;-70
2024/01/07 00:56:26;;;;;;;4.18;1.80;;;;;;;9.45;82.66;91927.66;522772;28;916;-69
2024/01/07 00:56:41;;;;;;;3.60;1.73;;;;;;;9.55;82.81;91953.19;523579;28;1020;-69
2024/01/07 00:56:57;;;;;;;3.33;1.70;;;;;;;9.56;82.56;91957.41;523726;28;766;-69
2024/01/07 00:57:12;;;;;;;3.55;1.40;;;;;;;9.55;82.84;91944.22;523621;28;1076;-70
2024/01/07 00:57:28;;;;;;;3.37;1.20;;;;;;;9.52;82.75;91945.38;523698;28;778;-70
2024/01/07 00:57:43;;;;;;;2.13;1.20;;;;;;;9.52;82.70;91954.38;523691;28;956;-69
2024/01/07 00:57:58;;;;;;;1.60;1.40;;;;;;;9.52;82.70;91950.88;522224;28;1752;-69
2024/01/07 00:58:14;;;;;;;1.67;1.48;;;;;;;9.47;83.10;91951.88;523355;28;794;-68
2024/01/07 00:58:29;;;;;;;2.20;1.40;;;;;;;9.49;83.05;91943.75;522365;28;850;-70
2024/01/07 00:58:45;;;;;;;2.70;1.30;;;;;;;9.50;83.28;91947.97;521588;28;1109;-70
2024/01/07 00:59:01;;;;;;;2.13;1.33;;;;;;;9.51;83.16;91935.63;521581;28;862;-69
2024/01/07 00:59:16;;;;;;;1.55;1.38;;;;;;;9.50;83.08;91940.44;521872;28;826;-69
2024/01/07 00:59:32;;;;;;;1.80;1.38;;;;;;;9.51;83.04;91939.13;523838;28;802;-69
2024/01/07 00:59:47;;;;;;;2.33;1.33;;;;;;;9.52;83.18;91950.88;523782;28;888;-70
2024/01/07 01:00:07;;;;;;;2.40;1.30;;;;;;;9.54;82.92;91940.00;522460;28;833;-70
2024/01/07 01:00:23;;;;;;;2.03;1.50;;;;;;;9.55;82.89;91938.72;522680;28;934;-70
2024/01/07 01:00:38;;;;;;;2.13;1.42;;;;;;;9.56;82.99;91937.38;523649;28;877;-70
2024/01/07 01:00:54;;;;;;;3.00;1.60;;;;;;;9.56;82.97;91935.38;523545;28;826;-70
2024/01/07 01:01:09;;;;;;;2.80;1.70;;;;;;;9.58;82.95;91935.50;523551;28;947;-70
2024/01/07 01:01:25;;;;;;;1.60;1.50;;;;;;;9.58;82.83;91932.03;523498;28;758;-69
2024/01/07 01:01:40;;;;;;;1.88;1.60;;;;;;;9.54;83.05;91943.50;523478;28;838;-70
2024/01/07 01:01:55;;;;;;;2.20;1.50;;;;;;;9.54;82.91;91937.97;523529;28;1149;-69
2024/01/07 01:02:11;;;;;;;1.60;1.30;;;;;;;9.55;82.84;91941.47;523574;28;806;-69
2024/01/07 01:02:26;;;;;;;1.70;1.60;;;;;;;9.56;83.09;91934.63;522366;28;1703;-69
2024/01/07 01:02:42;;;;;;;2.60;1.80;;;;;;;9.55;83.08;91930.44;521614;28;778;-69
2024/01/07 01:02:58;;;;;;;3.00;1.42;;;;;;;9.55;83.15;91933.19;523102;28;779;-69
2024/01/07 01:03:13;;;;;;;2.35;1.30;;;;;;;9.56;83.01;91926.38;523622;28;853;-70
2024/01/07 01:03:29;;;;;;;2.03;1.30;;;;;;;9.56;82.68;91929.13;522533;28;865;-70
2024/01/07 01:03:44;;;;;;;2.58;1.40;;;;;;;9.54;83.04;91929.72;523251;28;1086;-70
2024/01/07 01:04:00;;;;;;;2.37;1.50;;;;;;;9.49;83.02;91927.22;523763;28;789;-69
2024/01/07 01:04:15;;;;;;;1.70;1.60;;;;;;;9.48;83.03;91923.03;523730;28;870;-69
2024/01/07 01:04:30;;;;;;;1.45;1.35;;;;;;;9.47;83.26;91925.06;522645;28;1095;-70
2024/01/07 01:04:46;;;;;;;1.90;1.27;;;;;;;9.49;83.44;91916.22;521594;28;1073;-69
2024/01/07 01:05:02;;;;;;;2.53;1.52;;;;;;;9.50;83.04;91931.44;521600;28;896;-69
2024/01/07 01:05:17;;;;;;;2.65;1.67;;;;;;;9.47;83.38;91921.56;521785;28;1667;-70
2024/01/07 01:05:33;;;;;;;3.40;1.80;;;;;;;9.46;83.24;91918.13;522240;28;1326;-69
2024/01/07 01:05:48;;;;;;;2.70;1.77;;;;;;;9.46;82.98;91923.63;521715;28;912;-70
2024/01/07 01:06:04;;;;;;;1.50;1.40;;;;;;;9.47;83.02;91916.06;522021;28;1122;-69
2024/01/07 01:06:20;;;;;;;1.67;1.20;;;;;;;9.48;82.95;91921.00;523493;28;971;-69
2024/01/07 01:06:35;;;;;;;1.53;1.20;;;;;;;9.48;83.09;91917.53;524123;28;916;-69
2024/01/07 01:06:50;;;;;;;1.40;1.23;;;;;;;9.49;83.21;91918.97;523970;28;990;-69
2024/01/07 01:07:07;;;;;;;1.37;1.27;;;;;;;9.51;83.14;91916.34;524084;28;1906;-69
2024/01/07 01:07:23;;;;;;;1.63;1.27;;;;;;;9.50;82.90;91918.41;524209;28;970;-69
2024/01/07 01:07:38;;;;;;;3.07;1.40;;;;;;;9.50;82.73;91921.16;524152;28;802;-69
2024/01/07 01:07:53;;;;;;;2.83;1.50;;;;;;;9.51;82.87;91916.34;523984;28;936;-69
2024/01/07 01:08:09;;;;;;;1.60;1.47;;;;;;;9.52;82.57;91917.81;524101;28;766;-69
2024/01/07 01:08:24;;;;;;;1.80;1.38;;;;;;;9.52;82.48;91915.06;524085;28;1045;-69
2024/01/07 01:08:40;;;;;;;1.40;1.20;;;;;;;9.52;82.82;91917.81;524022;28;1020;-69
2024/01/07 01:08:55;;;;;;;1.23;1.13;;;;;;;9.48;82.66;91918.25;524097;28;798;-69
2024/01/07 01:09:11;;;;;;;1.57;1.40;;;;;;;9.49;82.75;91913.44;524092;28;786;-69
2024/01/07 01:09:28;;;;;;;2.03;1.57;;;;;;;9.51;82.69;91908.81;524241;28;1626;-69
2024/01/07 01:09:44;;;;;;;2.28;1.70;;;;;;;9.51;82.58;91913.59;522788;28;939;-69
2024/01/07 01:09:59;;;;;;;2.93;2.23;;;;;;;9.52;82.26;91915.06;523777;28;762;-69
2024/01/07 01:10:16;;;;;;;4.20;2.58;;;;;;;9.52;82.18;91909.56;523736;28;1211;-69
2024/01/07 01:10:32;;;;;;;5.38;2.78;;;;;;;9.52;82.37;91909.56;523502;28;865;-70
2024/01/07 01:10:47;;;;;;;4.47;2.70;;;;;;;9.51;82.09;91905.34;522096;28;981;-69
2024/01/07 01:11:03;;;;;;;3.65;2.63;;;;;;;9.50;82.05;91907.38;522009;28;948;-69
2024/01/07 01:11:18;;;;;;;3.67;3.07;;;;;;;9.50;81.91;91906.66;522714;28;814;-69
2024/01/07 01:11:34;;;;;;;5.28;3.35;;;;;;;9.50;82.23;91898.38;524027;28;817;-69
2024/01/07 01:11:49;;;;;;;5.67;3.30;;;;;;;9.48;82.13;91895.50;523523;28;1125;-69
2024/01/07 01:12:05;;;;;;;4.88;2.88;;;;;;;9.45;81.70;91904.91;524051;28;797;-69
2024/01/07 01:12:20;;;;;;;3.70;2.50;;;;;;;9.43;82.24;91899.97;523037;28;1662;-69
2024/01/07 01:12:36;;;;;;;4.85;3.67;;;;;;;9.43;82.25;91890.97;522350;28;970;-70
2024/01/07 01:12:54;;;;;;;5.93;4.30;;;;;;;9.41;82.25;91891.56;523298;28;813;-69
2024/01/07 01:13:09;;;;;;;2.92;2.22;;;;;;;9.39;82.28;91894.19;521782;28;926;-69
2024/01/07 01:13:25;;;;;;;1.55;1.38;;;;;;;9.33;82.02;91893.00;521963;28;1041;-70
2024/01/07 01:13:40;;;;;;;1.60;1.27;;;;;;;9.28;82.50;91891.25;521807;28;1061;-69
2024/01/07 01:13:55;;;;;;;1.90;1.20;;;;;;;9.31;82.53;91893.59;522027;28;854;-70
2024/01/07 01:14:11;;;;;;;3.05;1.50;;;;;;;9.32;82.56;91889.53;521977;28;782;-70
2024/01/07 01:14:27;;;;;;;3.20;1.57;;;;;;;9.35;82.43;91893.16;523319;28;877;-70
2024/01/07 01:14:42;;;;;;;2.05;1.40;;;;;;;9.35;82.26;91887.66;521965;28;1189;-69
2024/01/07 01:14:57;;;;;;;1.67;1.47;;;;;;;9.35;82.44;91890.41;522520;28;1076;-69
2024/01/07 01:15:16;;;;;;;3.80;1.98;;;;;;;9.32;82.02;91880.53;523243;28;1736;-69
2024/01/07 01:15:31;;;;;;;5.03;2.67;;;;;;;9.31;82.01;91887.34;522900;28;939;-69
2024/01/07 01:15:47;;;;;;;3.10;2.20;;;;;;;9.31;82.10;91876.34;523234;28;797;-69
2024/01/07 01:16:02;;;;;;;2.50;2.00;;;;;;;9.28;82.28;91888.50;521996;28;873;-69
2024/01/07 01:16:18;;;;;;;3.70;2.67;;;;;;;9.32;82.37;91888.78;522999;28;814;-70
2024/01/07 01:16:33;;;;;;;5.60;3.00;;;;;;;9.32;82.32;91886.78;522241;28;877;-69
2024/01/07 01:16:49;;;;;;;6.03;3.10;;;;;;;9.32;82.48;91883.28;524180;28;908;-69
2024/01/07 01:17:04;;;;;;;5.47;3.27;;;;;;;9.33;82.22;91879.25;524008;28;1042;-69
2024/01/07 01:17:20;;;;;;;4.73;2.60;;;;;;;9.34;81.74;91881.41;523988;28;797;-69